sensor_id;sensor_type;location;lat;lon;timestamp;P1;durP1;ratioP1;P2;durP2;ratioP2
58091;SDS011;43896;48.178;11.578;2022-10-18T00:00:58;8.65;;;5.07;;
58091;SDS011;43896;48.178;11.578;2022-10-18T00:03:27;8.88;;;5.53;;
58091;SDS011;43896;48.178;11.578;2022-10-18T00:05:53;10.15;;;5.40;;
58091;SDS011;43896;48.178;11.578;2022-10-18T00:08:18;8.05;;;5.07;;
58091;SDS011;43896;48.178;11.578;2022-10-18T00:10:44;8.82;;;5.05;;
58091;SDS011;43896;48.178;11.578;2022-10-18T00:13:12;9.43;;;5.13;;
58091;SDS011;43896;48.178;11.578;2022-10-18T00:15:38;8.25;;;4.72;;
58091;SDS011;43896;48.178;11.578;2022-10-18T00:18:04;7.35;;;4.85;;
58091;SDS011;43896;48.178;11.578;2022-10-18T00:20:32;8.40;;;4.82;;
58091;SDS011;43896;48.178;11.578;2022-10-18T00:23:00;7.43;;;4.60;;
58091;SDS011;43896;48.178;11.578;2022-10-18T00:25:28;7.65;;;4.63;;
58091;SDS011;43896;48.178;11.578;2022-10-18T00:27:53;8.73;;;4.85;;
58091;SDS011;43896;48.178;11.578;2022-10-18T00:30:19;8.20;;;4.95;;
58091;SDS011;43896;48.178;11.578;2022-10-18T00:32:46;9.55;;;5.80;;
58091;SDS011;43896;48.178;11.578;2022-10-18T00:35:17;9.30;;;5.20;;
58091;SDS011;43896;48.178;11.578;2022-10-18T00:37:51;7.82;;;4.80;;
58091;SDS011;43896;48.178;11.578;2022-10-18T00:40:21;9.00;;;5.00;;
58091;SDS011;43896;48.178;11.578;2022-10-18T00:42:49;8.07;;;4.97;;
58091;SDS011;43896;48.178;11.578;2022-10-18T00:45:19;10.35;;;5.40;;
58091;SDS011;43896;48.178;11.578;2022-10-18T00:47:57;9.27;;;5.07;;
58091;SDS011;43896;48.178;11.578;2022-10-18T00:50:26;9.07;;;4.72;;
58091;SDS011;43896;48.178;11.578;2022-10-18T00:52:56;7.35;;;4.72;;
58091;SDS011;43896;48.178;11.578;2022-10-18T00:55:24;9.18;;;4.72;;
58091;SDS011;43896;48.178;11.578;2022-10-18T00:57:50;8.93;;;5.05;;
58091;SDS011;43896;48.178;11.578;2022-10-18T01:00:20;13.30;;;5.20;;
58091;SDS011;43896;48.178;11.578;2022-10-18T01:02:46;8.10;;;4.35;;
58091;SDS011;43896;48.178;11.578;2022-10-18T01:05:12;8.02;;;4.90;;
58091;SDS011;43896;48.178;11.578;2022-10-18T01:15:26;7.18;;;4.55;;
58091;SDS011;43896;48.178;11.578;2022-10-18T01:20:39;11.13;;;4.50;;
58091;SDS011;43896;48.178;11.578;2022-10-18T01:31:38;7.70;;;4.38;;
58091;SDS011;43896;48.178;11.578;2022-10-18T01:34:15;8.15;;;3.90;;
58091;SDS011;43896;48.178;11.578;2022-10-18T01:36:48;5.93;;;3.55;;
58091;SDS011;43896;48.178;11.578;2022-10-18T01:39:35;9.10;;;4.10;;
58091;SDS011;43896;48.178;11.578;2022-10-18T01:42:06;6.13;;;3.72;;
58091;SDS011;43896;48.178;11.578;2022-10-18T01:44:40;7.63;;;3.50;;
58091;SDS011;43896;48.178;11.578;2022-10-18T01:47:10;7.07;;;3.67;;
58091;SDS011;43896;48.178;11.578;2022-10-18T01:49:38;7.88;;;3.92;;
58091;SDS011;43896;48.178;11.578;2022-10-18T01:52:03;7.32;;;3.70;;
58091;SDS011;43896;48.178;11.578;2022-10-18T01:54:33;6.95;;;3.80;;
58091;SDS011;43896;48.178;11.578;2022-10-18T02:02:39;6.97;;;3.78;;
58091;SDS011;43896;48.178;11.578;2022-10-18T02:08:38;6.40;;;3.80;;
58091;SDS011;43896;48.178;11.578;2022-10-18T02:11:12;6.47;;;3.50;;
58091;SDS011;43896;48.178;11.578;2022-10-18T02:13:46;7.00;;;3.70;;
58091;SDS011;43896;48.178;11.578;2022-10-18T02:16:19;6.07;;;3.80;;
58091;SDS011;43896;48.178;11.578;2022-10-18T02:18:57;5.95;;;3.58;;
58091;SDS011;43896;48.178;11.578;2022-10-18T02:21:28;6.07;;;3.20;;
58091;SDS011;43896;48.178;11.578;2022-10-18T02:23:56;6.68;;;3.40;;
58091;SDS011;43896;48.178;11.578;2022-10-18T02:26:23;7.35;;;3.60;;
58091;SDS011;43896;48.178;11.578;2022-10-18T02:28:49;9.00;;;3.85;;
58091;SDS011;43896;48.178;11.578;2022-10-18T02:31:18;6.55;;;3.65;;
58091;SDS011;43896;48.178;11.578;2022-10-18T02:33:59;7.00;;;3.80;;
58091;SDS011;43896;48.178;11.578;2022-10-18T02:39:21;6.82;;;3.40;;
58091;SDS011;43896;48.178;11.578;2022-10-18T02:41:53;8.45;;;3.50;;
58091;SDS011;43896;48.178;11.578;2022-10-18T02:44:19;7.32;;;3.58;;
58091;SDS011;43896;48.178;11.578;2022-10-18T02:46:44;7.22;;;3.40;;
58091;SDS011;43896;48.178;11.578;2022-10-18T02:49:11;8.07;;;3.40;;
58091;SDS011;43896;48.178;11.578;2022-10-18T02:51:39;5.93;;;3.50;;
58091;SDS011;43896;48.178;11.578;2022-10-18T02:54:07;7.47;;;3.25;;
58091;SDS011;43896;48.178;11.578;2022-10-18T02:56:35;5.47;;;3.42;;
58091;SDS011;43896;48.178;11.578;2022-10-18T02:59:01;6.78;;;3.70;;
58091;SDS011;43896;48.178;11.578;2022-10-18T03:01:31;5.65;;;3.10;;
58091;SDS011;43896;48.178;11.578;2022-10-18T03:03:58;7.13;;;3.20;;
58091;SDS011;43896;48.178;11.578;2022-10-18T03:06:23;6.38;;;3.30;;
58091;SDS011;43896;48.178;11.578;2022-10-18T03:08:53;6.18;;;3.35;;
58091;SDS011;43896;48.178;11.578;2022-10-18T03:11:28;7.65;;;3.40;;
58091;SDS011;43896;48.178;11.578;2022-10-18T03:13:53;4.90;;;3.00;;
58091;SDS011;43896;48.178;11.578;2022-10-18T03:16:19;6.90;;;3.17;;
58091;SDS011;43896;48.178;11.578;2022-10-18T03:18:47;6.78;;;3.17;;
58091;SDS011;43896;48.178;11.578;2022-10-18T03:21:12;6.05;;;2.90;;
58091;SDS011;43896;48.178;11.578;2022-10-18T03:23:42;6.97;;;3.10;;
58091;SDS011;43896;48.178;11.578;2022-10-18T03:26:08;5.38;;;3.05;;
58091;SDS011;43896;48.178;11.578;2022-10-18T03:28:34;9.23;;;3.30;;
58091;SDS011;43896;48.178;11.578;2022-10-18T03:30:59;6.80;;;3.25;;
58091;SDS011;43896;48.178;11.578;2022-10-18T03:33:26;5.97;;;3.00;;
58091;SDS011;43896;48.178;11.578;2022-10-18T03:35:52;7.72;;;2.90;;
58091;SDS011;43896;48.178;11.578;2022-10-18T03:38:18;5.78;;;2.85;;
58091;SDS011;43896;48.178;11.578;2022-10-18T03:40:46;5.18;;;2.90;;
58091;SDS011;43896;48.178;11.578;2022-10-18T03:43:15;6.82;;;3.00;;
58091;SDS011;43896;48.178;11.578;2022-10-18T03:45:40;5.93;;;2.70;;
58091;SDS011;43896;48.178;11.578;2022-10-18T03:48:06;6.40;;;3.03;;
58091;SDS011;43896;48.178;11.578;2022-10-18T03:50:31;6.10;;;2.85;;
58091;SDS011;43896;48.178;11.578;2022-10-18T03:52:57;6.60;;;2.95;;
58091;SDS011;43896;48.178;11.578;2022-10-18T03:55:22;6.90;;;3.00;;
58091;SDS011;43896;48.178;11.578;2022-10-18T03:57:48;5.93;;;2.90;;
58091;SDS011;43896;48.178;11.578;2022-10-18T04:00:15;5.22;;;2.85;;
58091;SDS011;43896;48.178;11.578;2022-10-18T04:02:41;6.03;;;3.20;;
58091;SDS011;43896;48.178;11.578;2022-10-18T04:05:06;5.40;;;2.70;;
58091;SDS011;43896;48.178;11.578;2022-10-18T04:07:33;6.82;;;3.10;;
58091;SDS011;43896;48.178;11.578;2022-10-18T04:09:59;5.03;;;2.80;;
58091;SDS011;43896;48.178;11.578;2022-10-18T04:12:27;4.85;;;2.70;;
58091;SDS011;43896;48.178;11.578;2022-10-18T04:14:52;5.80;;;2.50;;
58091;SDS011;43896;48.178;11.578;2022-10-18T04:17:17;6.40;;;2.80;;
58091;SDS011;43896;48.178;11.578;2022-10-18T04:19:43;6.47;;;2.95;;
58091;SDS011;43896;48.178;11.578;2022-10-18T04:22:11;6.78;;;2.78;;
58091;SDS011;43896;48.178;11.578;2022-10-18T04:24:37;7.20;;;3.03;;
58091;SDS011;43896;48.178;11.578;2022-10-18T04:27:06;7.25;;;3.00;;
58091;SDS011;43896;48.178;11.578;2022-10-18T04:29:33;7.35;;;3.25;;
58091;SDS011;43896;48.178;11.578;2022-10-18T04:32:01;7.68;;;3.20;;
58091;SDS011;43896;48.178;11.578;2022-10-18T04:34:34;5.80;;;3.17;;
58091;SDS011;43896;48.178;11.578;2022-10-18T04:37:02;6.28;;;3.30;;
58091;SDS011;43896;48.178;11.578;2022-10-18T04:39:28;6.53;;;3.20;;
58091;SDS011;43896;48.178;11.578;2022-10-18T04:41:53;7.97;;;3.05;;
58091;SDS011;43896;48.178;11.578;2022-10-18T04:44:18;5.82;;;2.85;;
58091;SDS011;43896;48.178;11.578;2022-10-18T04:46:44;5.97;;;2.83;;
58091;SDS011;43896;48.178;11.578;2022-10-18T04:52:52;6.07;;;3.10;;
58091;SDS011;43896;48.178;11.578;2022-10-18T05:04:00;5.85;;;2.88;;
58091;SDS011;43896;48.178;11.578;2022-10-18T05:06:25;6.45;;;3.17;;
58091;SDS011;43896;48.178;11.578;2022-10-18T05:08:50;4.97;;;2.63;;
58091;SDS011;43896;48.178;11.578;2022-10-18T05:11:16;5.93;;;2.85;;
58091;SDS011;43896;48.178;11.578;2022-10-18T05:13:41;5.40;;;2.80;;
58091;SDS011;43896;48.178;11.578;2022-10-18T05:16:07;6.28;;;3.00;;
58091;SDS011;43896;48.178;11.578;2022-10-18T05:18:32;6.47;;;2.90;;
58091;SDS011;43896;48.178;11.578;2022-10-18T05:20:57;5.53;;;3.03;;
58091;SDS011;43896;48.178;11.578;2022-10-18T05:23:23;7.20;;;2.85;;
58091;SDS011;43896;48.178;11.578;2022-10-18T05:26:04;8.52;;;3.30;;
58091;SDS011;43896;48.178;11.578;2022-10-18T05:28:30;7.40;;;3.17;;
58091;SDS011;43896;48.178;11.578;2022-10-18T05:31:06;5.82;;;3.05;;
58091;SDS011;43896;48.178;11.578;2022-10-18T05:33:33;5.55;;;2.95;;
58091;SDS011;43896;48.178;11.578;2022-10-18T05:35:59;6.28;;;3.17;;
58091;SDS011;43896;48.178;11.578;2022-10-18T05:38:24;6.05;;;2.97;;
58091;SDS011;43896;48.178;11.578;2022-10-18T05:46:47;7.75;;;3.03;;
58091;SDS011;43896;48.178;11.578;2022-10-18T05:49:12;6.13;;;2.92;;
58091;SDS011;43896;48.178;11.578;2022-10-18T05:51:47;6.88;;;3.38;;
58091;SDS011;43896;48.178;11.578;2022-10-18T05:54:12;7.97;;;3.13;;
58091;SDS011;43896;48.178;11.578;2022-10-18T05:56:38;6.72;;;3.40;;
58091;SDS011;43896;48.178;11.578;2022-10-18T05:59:04;5.25;;;3.13;;
58091;SDS011;43896;48.178;11.578;2022-10-18T06:01:34;7.03;;;3.28;;
58091;SDS011;43896;48.178;11.578;2022-10-18T06:04:28;7.00;;;3.30;;
58091;SDS011;43896;48.178;11.578;2022-10-18T06:06:54;7.18;;;3.33;;
58091;SDS011;43896;48.178;11.578;2022-10-18T06:09:22;8.20;;;3.40;;
58091;SDS011;43896;48.178;11.578;2022-10-18T06:11:52;8.73;;;3.65;;
58091;SDS011;43896;48.178;11.578;2022-10-18T06:14:38;7.97;;;3.30;;
58091;SDS011;43896;48.178;11.578;2022-10-18T06:17:07;9.03;;;3.17;;
58091;SDS011;43896;48.178;11.578;2022-10-18T06:19:35;8.43;;;3.70;;
58091;SDS011;43896;48.178;11.578;2022-10-18T06:22:08;8.35;;;3.17;;
58091;SDS011;43896;48.178;11.578;2022-10-18T06:24:45;10.95;;;5.13;;
58091;SDS011;43896;48.178;11.578;2022-10-18T06:27:11;6.65;;;3.42;;
58091;SDS011;43896;48.178;11.578;2022-10-18T06:29:56;6.22;;;3.25;;
58091;SDS011;43896;48.178;11.578;2022-10-18T06:32:24;7.97;;;3.42;;
58091;SDS011;43896;48.178;11.578;2022-10-18T06:34:49;6.88;;;3.90;;
58091;SDS011;43896;48.178;11.578;2022-10-18T06:37:17;8.52;;;3.72;;
58091;SDS011;43896;48.178;11.578;2022-10-18T06:39:45;7.40;;;3.20;;
58091;SDS011;43896;48.178;11.578;2022-10-18T06:42:10;5.75;;;3.10;;
58091;SDS011;43896;48.178;11.578;2022-10-18T06:44:38;7.25;;;3.35;;
58091;SDS011;43896;48.178;11.578;2022-10-18T06:47:04;6.53;;;3.10;;
58091;SDS011;43896;48.178;11.578;2022-10-18T06:49:36;7.35;;;3.55;;
58091;SDS011;43896;48.178;11.578;2022-10-18T06:52:07;8.75;;;3.90;;
58091;SDS011;43896;48.178;11.578;2022-10-18T06:54:37;6.10;;;3.28;;
58091;SDS011;43896;48.178;11.578;2022-10-18T06:57:06;6.95;;;3.20;;
58091;SDS011;43896;48.178;11.578;2022-10-18T06:59:34;8.40;;;3.65;;
58091;SDS011;43896;48.178;11.578;2022-10-18T07:02:05;7.28;;;3.08;;
58091;SDS011;43896;48.178;11.578;2022-10-18T07:04:38;7.95;;;3.50;;
58091;SDS011;43896;48.178;11.578;2022-10-18T07:07:04;6.38;;;3.30;;
58091;SDS011;43896;48.178;11.578;2022-10-18T07:09:32;7.13;;;3.08;;
58091;SDS011;43896;48.178;11.578;2022-10-18T07:12:03;6.10;;;3.20;;
58091;SDS011;43896;48.178;11.578;2022-10-18T07:14:42;5.97;;;3.10;;
58091;SDS011;43896;48.178;11.578;2022-10-18T07:17:28;6.75;;;3.20;;
58091;SDS011;43896;48.178;11.578;2022-10-18T07:20:20;6.43;;;3.40;;
58091;SDS011;43896;48.178;11.578;2022-10-18T07:22:56;6.85;;;3.00;;
58091;SDS011;43896;48.178;11.578;2022-10-18T07:25:34;5.28;;;3.10;;
58091;SDS011;43896;48.178;11.578;2022-10-18T07:28:02;7.65;;;2.80;;
58091;SDS011;43896;48.178;11.578;2022-10-18T07:30:30;8.57;;;3.05;;
58091;SDS011;43896;48.178;11.578;2022-10-18T07:32:56;8.07;;;3.17;;
58091;SDS011;43896;48.178;11.578;2022-10-18T07:35:21;8.27;;;4.60;;
58091;SDS011;43896;48.178;11.578;2022-10-18T07:37:56;7.10;;;3.17;;
58091;SDS011;43896;48.178;11.578;2022-10-18T07:40:22;4.65;;;2.75;;
58091;SDS011;43896;48.178;11.578;2022-10-18T07:42:55;6.10;;;3.00;;
58091;SDS011;43896;48.178;11.578;2022-10-18T07:45:36;7.10;;;3.10;;
58091;SDS011;43896;48.178;11.578;2022-10-18T07:48:16;7.65;;;3.00;;
58091;SDS011;43896;48.178;11.578;2022-10-18T07:53:55;6.32;;;2.85;;
58091;SDS011;43896;48.178;11.578;2022-10-18T07:56:23;8.23;;;2.85;;
58091;SDS011;43896;48.178;11.578;2022-10-18T07:59:00;5.20;;;2.95;;
58091;SDS011;43896;48.178;11.578;2022-10-18T08:02:10;7.28;;;3.15;;
58091;SDS011;43896;48.178;11.578;2022-10-18T08:04:45;7.60;;;2.80;;
58091;SDS011;43896;48.178;11.578;2022-10-18T08:07:40;7.80;;;3.08;;
58091;SDS011;43896;48.178;11.578;2022-10-18T08:10:26;6.18;;;2.85;;
58091;SDS011;43896;48.178;11.578;2022-10-18T08:16:17;6.00;;;3.30;;
58091;SDS011;43896;48.178;11.578;2022-10-18T08:19:01;10.52;;;3.08;;
58091;SDS011;43896;48.178;11.578;2022-10-18T08:21:40;6.45;;;2.80;;
58091;SDS011;43896;48.178;11.578;2022-10-18T08:24:38;6.18;;;3.00;;
58091;SDS011;43896;48.178;11.578;2022-10-18T08:27:19;7.20;;;3.50;;
58091;SDS011;43896;48.178;11.578;2022-10-18T08:30:10;6.93;;;3.30;;
58091;SDS011;43896;48.178;11.578;2022-10-18T08:32:41;8.23;;;3.22;;
58091;SDS011;43896;48.178;11.578;2022-10-18T08:35:09;7.32;;;3.10;;
58091;SDS011;43896;48.178;11.578;2022-10-18T08:37:35;5.93;;;3.03;;
58091;SDS011;43896;48.178;11.578;2022-10-18T08:40:13;7.47;;;2.67;;
58091;SDS011;43896;48.178;11.578;2022-10-18T08:45:33;7.82;;;2.88;;
58091;SDS011;43896;48.178;11.578;2022-10-18T08:48:03;6.25;;;2.72;;
58091;SDS011;43896;48.178;11.578;2022-10-18T08:50:40;6.03;;;2.95;;
58091;SDS011;43896;48.178;11.578;2022-10-18T08:53:17;5.60;;;2.80;;
58091;SDS011;43896;48.178;11.578;2022-10-18T08:55:53;5.95;;;2.63;;
58091;SDS011;43896;48.178;11.578;2022-10-18T08:58:25;6.22;;;2.60;;
58091;SDS011;43896;48.178;11.578;2022-10-18T09:01:05;4.40;;;2.50;;
58091;SDS011;43896;48.178;11.578;2022-10-18T09:03:37;6.40;;;2.97;;
58091;SDS011;43896;48.178;11.578;2022-10-18T09:06:31;5.25;;;2.72;;
58091;SDS011;43896;48.178;11.578;2022-10-18T09:12:19;7.35;;;2.70;;
58091;SDS011;43896;48.178;11.578;2022-10-18T09:15:05;6.20;;;2.65;;
58091;SDS011;43896;48.178;11.578;2022-10-18T09:20:52;6.32;;;2.92;;
58091;SDS011;43896;48.178;11.578;2022-10-18T09:23:40;5.22;;;2.70;;
58091;SDS011;43896;48.178;11.578;2022-10-18T09:26:23;6.65;;;2.67;;
58091;SDS011;43896;48.178;11.578;2022-10-18T09:31:17;8.05;;;2.90;;
58091;SDS011;43896;48.178;11.578;2022-10-18T09:33:55;6.78;;;3.17;;
58091;SDS011;43896;48.178;11.578;2022-10-18T09:36:26;6.15;;;2.70;;
58091;SDS011;43896;48.178;11.578;2022-10-18T09:39:18;6.93;;;3.00;;
58091;SDS011;43896;48.178;11.578;2022-10-18T09:41:55;6.78;;;3.00;;
58091;SDS011;43896;48.178;11.578;2022-10-18T09:45:05;5.47;;;3.10;;
58091;SDS011;43896;48.178;11.578;2022-10-18T09:48:30;4.75;;;2.70;;
58091;SDS011;43896;48.178;11.578;2022-10-18T09:51:58;9.35;;;3.20;;
58091;SDS011;43896;48.178;11.578;2022-10-18T09:58:01;5.72;;;2.92;;
58091;SDS011;43896;48.178;11.578;2022-10-18T10:00:33;5.32;;;2.88;;
58091;SDS011;43896;48.178;11.578;2022-10-18T10:03:29;8.07;;;2.95;;
58091;SDS011;43896;48.178;11.578;2022-10-18T10:06:13;5.35;;;2.70;;
58091;SDS011;43896;48.178;11.578;2022-10-18T10:08:47;4.75;;;2.92;;
58091;SDS011;43896;48.178;11.578;2022-10-18T10:13:56;7.53;;;2.70;;
58091;SDS011;43896;48.178;11.578;2022-10-18T10:16:31;6.47;;;3.00;;
58091;SDS011;43896;48.178;11.578;2022-10-18T10:18:57;7.43;;;2.72;;
58091;SDS011;43896;48.178;11.578;2022-10-18T10:21:22;5.55;;;2.70;;
58091;SDS011;43896;48.178;11.578;2022-10-18T10:23:52;5.78;;;2.80;;
58091;SDS011;43896;48.178;11.578;2022-10-18T10:26:21;79.20;;;7.97;;
58091;SDS011;43896;48.178;11.578;2022-10-18T10:34:53;5.78;;;2.95;;
58091;SDS011;43896;48.178;11.578;2022-10-18T10:37:23;6.30;;;3.08;;
58091;SDS011;43896;48.178;11.578;2022-10-18T10:40:03;6.35;;;2.90;;
58091;SDS011;43896;48.178;11.578;2022-10-18T10:42:29;5.90;;;2.90;;
58091;SDS011;43896;48.178;11.578;2022-10-18T10:44:59;8.07;;;3.05;;
58091;SDS011;43896;48.178;11.578;2022-10-18T10:50:07;6.15;;;3.00;;
58091;SDS011;43896;48.178;11.578;2022-10-18T10:52:35;5.30;;;2.90;;
58091;SDS011;43896;48.178;11.578;2022-10-18T10:55:04;5.85;;;2.90;;
58091;SDS011;43896;48.178;11.578;2022-10-18T11:03:17;6.40;;;2.78;;
58091;SDS011;43896;48.178;11.578;2022-10-18T11:05:47;6.03;;;2.88;;
58091;SDS011;43896;48.178;11.578;2022-10-18T11:08:34;6.05;;;2.90;;
58091;SDS011;43896;48.178;11.578;2022-10-18T11:11:18;5.25;;;2.90;;
58091;SDS011;43896;48.178;11.578;2022-10-18T11:22:36;6.43;;;2.70;;
58091;SDS011;43896;48.178;11.578;2022-10-18T11:25:11;7.72;;;2.90;;
58091;SDS011;43896;48.178;11.578;2022-10-18T11:27:43;6.47;;;3.03;;
58091;SDS011;43896;48.178;11.578;2022-10-18T11:36:59;8.48;;;2.63;;
58091;SDS011;43896;48.178;11.578;2022-10-18T11:39:36;7.53;;;2.75;;
58091;SDS011;43896;48.178;11.578;2022-10-18T11:42:27;7.50;;;2.65;;
58091;SDS011;43896;48.178;11.578;2022-10-18T11:45:06;5.53;;;3.20;;
58091;SDS011;43896;48.178;11.578;2022-10-18T11:50:46;6.88;;;3.10;;
58091;SDS011;43896;48.178;11.578;2022-10-18T12:05:34;7.80;;;3.40;;
58091;SDS011;43896;48.178;11.578;2022-10-18T12:08:04;7.67;;;3.27;;
58091;SDS011;43896;48.178;11.578;2022-10-18T12:10:37;7.40;;;3.13;;
58091;SDS011;43896;48.178;11.578;2022-10-18T12:13:06;6.72;;;3.20;;
58091;SDS011;43896;48.178;11.578;2022-10-18T12:15:36;8.45;;;3.17;;
58091;SDS011;43896;48.178;11.578;2022-10-18T12:18:04;6.75;;;3.00;;
58091;SDS011;43896;48.178;11.578;2022-10-18T12:20:38;7.45;;;3.40;;
58091;SDS011;43896;48.178;11.578;2022-10-18T12:26:06;11.18;;;3.55;;
58091;SDS011;43896;48.178;11.578;2022-10-18T12:33:49;6.20;;;2.97;;
58091;SDS011;43896;48.178;11.578;2022-10-18T12:36:21;5.63;;;3.13;;
58091;SDS011;43896;48.178;11.578;2022-10-18T12:39:26;7.55;;;2.83;;
58091;SDS011;43896;48.178;11.578;2022-10-18T12:41:57;6.38;;;2.92;;
58091;SDS011;43896;48.178;11.578;2022-10-18T12:46:58;6.00;;;2.72;;
58091;SDS011;43896;48.178;11.578;2022-10-18T12:49:31;7.10;;;2.45;;
58091;SDS011;43896;48.178;11.578;2022-10-18T12:52:20;7.82;;;2.50;;
58091;SDS011;43896;48.178;11.578;2022-10-18T13:05:58;8.88;;;2.58;;
58091;SDS011;43896;48.178;11.578;2022-10-18T13:13:49;7.03;;;2.70;;
58091;SDS011;43896;48.178;11.578;2022-10-18T13:25:34;6.72;;;3.00;;
58091;SDS011;43896;48.178;11.578;2022-10-18T14:08:04;6.07;;;2.72;;
58091;SDS011;43896;48.178;11.578;2022-10-18T14:23:43;7.97;;;3.10;;
58091;SDS011;43896;48.178;11.578;2022-10-18T14:36:22;9.82;;;3.20;;
58091;SDS011;43896;48.178;11.578;2022-10-18T14:38:56;5.72;;;2.80;;
58091;SDS011;43896;48.178;11.578;2022-10-18T14:41:54;6.63;;;2.53;;
58091;SDS011;43896;48.178;11.578;2022-10-18T14:44:36;7.35;;;2.97;;
58091;SDS011;43896;48.178;11.578;2022-10-18T14:54:01;5.88;;;3.00;;
58091;SDS011;43896;48.178;11.578;2022-10-18T14:56:47;7.20;;;3.08;;
58091;SDS011;43896;48.178;11.578;2022-10-18T14:59:23;6.80;;;2.90;;
58091;SDS011;43896;48.178;11.578;2022-10-18T15:02:05;9.50;;;3.00;;
58091;SDS011;43896;48.178;11.578;2022-10-18T15:04:46;7.40;;;2.92;;
58091;SDS011;43896;48.178;11.578;2022-10-18T15:07:20;6.95;;;2.67;;
58091;SDS011;43896;48.178;11.578;2022-10-18T15:09:46;6.55;;;2.63;;
58091;SDS011;43896;48.178;11.578;2022-10-18T15:12:13;7.88;;;2.47;;
58091;SDS011;43896;48.178;11.578;2022-10-18T15:14:40;4.60;;;2.30;;
58091;SDS011;43896;48.178;11.578;2022-10-18T15:17:07;7.50;;;2.60;;
58091;SDS011;43896;48.178;11.578;2022-10-18T15:19:38;6.50;;;2.85;;
58091;SDS011;43896;48.178;11.578;2022-10-18T15:22:06;5.75;;;2.63;;
58091;SDS011;43896;48.178;11.578;2022-10-18T15:24:36;5.68;;;2.85;;
58091;SDS011;43896;48.178;11.578;2022-10-18T15:27:18;6.57;;;3.08;;
58091;SDS011;43896;48.178;11.578;2022-10-18T15:29:48;9.48;;;2.92;;
58091;SDS011;43896;48.178;11.578;2022-10-18T15:34:44;6.78;;;2.92;;
58091;SDS011;43896;48.178;11.578;2022-10-18T15:37:16;7.55;;;2.88;;
58091;SDS011;43896;48.178;11.578;2022-10-18T15:42:45;6.07;;;2.90;;
58091;SDS011;43896;48.178;11.578;2022-10-18T15:50:36;5.97;;;3.03;;
58091;SDS011;43896;48.178;11.578;2022-10-18T15:56:02;7.03;;;3.30;;
58091;SDS011;43896;48.178;11.578;2022-10-18T16:01:05;8.10;;;3.13;;
58091;SDS011;43896;48.178;11.578;2022-10-18T16:03:38;7.32;;;2.78;;
58091;SDS011;43896;48.178;11.578;2022-10-18T16:06:05;5.95;;;2.85;;
58091;SDS011;43896;48.178;11.578;2022-10-18T16:08:34;7.47;;;2.72;;
58091;SDS011;43896;48.178;11.578;2022-10-18T16:11:04;7.57;;;3.05;;
58091;SDS011;43896;48.178;11.578;2022-10-18T16:13:30;10.82;;;3.30;;
58091;SDS011;43896;48.178;11.578;2022-10-18T16:15:56;7.95;;;3.53;;
58091;SDS011;43896;48.178;11.578;2022-10-18T16:18:23;8.45;;;3.20;;
58091;SDS011;43896;48.178;11.578;2022-10-18T16:20:49;7.55;;;3.53;;
58091;SDS011;43896;48.178;11.578;2022-10-18T16:23:15;6.78;;;3.45;;
58091;SDS011;43896;48.178;11.578;2022-10-18T16:25:49;8.63;;;3.42;;
58091;SDS011;43896;48.178;11.578;2022-10-18T16:28:16;6.90;;;3.53;;
58091;SDS011;43896;48.178;11.578;2022-10-18T16:30:54;6.65;;;3.60;;
58091;SDS011;43896;48.178;11.578;2022-10-18T16:33:22;8.10;;;4.05;;
58091;SDS011;43896;48.178;11.578;2022-10-18T16:35:49;9.23;;;4.25;;
58091;SDS011;43896;48.178;11.578;2022-10-18T16:40:49;10.82;;;5.15;;
58091;SDS011;43896;48.178;11.578;2022-10-18T16:43:14;11.40;;;5.45;;
58091;SDS011;43896;48.178;11.578;2022-10-18T16:45:39;9.93;;;5.50;;
58091;SDS011;43896;48.178;11.578;2022-10-18T16:48:05;9.70;;;5.00;;
58091;SDS011;43896;48.178;11.578;2022-10-18T16:50:30;10.10;;;5.30;;
58091;SDS011;43896;48.178;11.578;2022-10-18T16:52:56;10.88;;;5.53;;
58091;SDS011;43896;48.178;11.578;2022-10-18T16:55:21;12.00;;;5.18;;
58091;SDS011;43896;48.178;11.578;2022-10-18T16:57:49;11.48;;;5.90;;
58091;SDS011;43896;48.178;11.578;2022-10-18T17:00:17;10.05;;;5.13;;
58091;SDS011;43896;48.178;11.578;2022-10-18T17:02:45;8.73;;;4.97;;
58091;SDS011;43896;48.178;11.578;2022-10-18T17:05:11;9.18;;;5.40;;
58091;SDS011;43896;48.178;11.578;2022-10-18T17:07:36;8.43;;;5.15;;
58091;SDS011;43896;48.178;11.578;2022-10-18T17:10:02;9.70;;;5.15;;
58091;SDS011;43896;48.178;11.578;2022-10-18T17:12:27;9.20;;;4.70;;
58091;SDS011;43896;48.178;11.578;2022-10-18T17:14:53;7.97;;;5.20;;
58091;SDS011;43896;48.178;11.578;2022-10-18T17:17:18;7.63;;;5.03;;
58091;SDS011;43896;48.178;11.578;2022-10-18T17:19:43;7.40;;;5.00;;
58091;SDS011;43896;48.178;11.578;2022-10-18T17:22:09;9.55;;;5.30;;
58091;SDS011;43896;48.178;11.578;2022-10-18T17:24:34;10.05;;;5.20;;
58091;SDS011;43896;48.178;11.578;2022-10-18T17:26:59;8.05;;;4.65;;
58091;SDS011;43896;48.178;11.578;2022-10-18T17:29:24;8.45;;;4.78;;
58091;SDS011;43896;48.178;11.578;2022-10-18T17:31:50;7.85;;;5.25;;
58091;SDS011;43896;48.178;11.578;2022-10-18T17:34:15;8.40;;;4.85;;
58091;SDS011;43896;48.178;11.578;2022-10-18T17:36:42;12.23;;;5.22;;
58091;SDS011;43896;48.178;11.578;2022-10-18T17:39:08;9.15;;;5.35;;
58091;SDS011;43896;48.178;11.578;2022-10-18T17:41:34;9.85;;;5.50;;
58091;SDS011;43896;48.178;11.578;2022-10-18T17:44:01;7.90;;;5.22;;
58091;SDS011;43896;48.178;11.578;2022-10-18T17:46:27;9.32;;;5.53;;
58091;SDS011;43896;48.178;11.578;2022-10-18T17:48:52;9.63;;;4.95;;
58091;SDS011;43896;48.178;11.578;2022-10-18T17:51:18;8.63;;;4.38;;
58091;SDS011;43896;48.178;11.578;2022-10-18T17:53:43;8.68;;;5.13;;
58091;SDS011;43896;48.178;11.578;2022-10-18T17:56:10;9.60;;;5.18;;
58091;SDS011;43896;48.178;11.578;2022-10-18T17:58:36;8.10;;;5.05;;
58091;SDS011;43896;48.178;11.578;2022-10-18T18:01:09;9.38;;;5.15;;
58091;SDS011;43896;48.178;11.578;2022-10-18T18:03:41;7.88;;;4.97;;
58091;SDS011;43896;48.178;11.578;2022-10-18T18:06:14;8.93;;;5.68;;
58091;SDS011;43896;48.178;11.578;2022-10-18T18:08:41;9.40;;;5.72;;
58091;SDS011;43896;48.178;11.578;2022-10-18T18:11:07;10.32;;;6.15;;
58091;SDS011;43896;48.178;11.578;2022-10-18T18:13:33;10.95;;;5.90;;
58091;SDS011;43896;48.178;11.578;2022-10-18T18:16:08;10.85;;;6.25;;
58091;SDS011;43896;48.178;11.578;2022-10-18T18:18:35;12.00;;;6.50;;
58091;SDS011;43896;48.178;11.578;2022-10-18T18:21:00;10.05;;;6.63;;
58091;SDS011;43896;48.178;11.578;2022-10-18T18:23:25;10.50;;;6.05;;
58091;SDS011;43896;48.178;11.578;2022-10-18T18:25:54;10.85;;;6.78;;
58091;SDS011;43896;48.178;11.578;2022-10-18T18:28:20;10.30;;;5.97;;
58091;SDS011;43896;48.178;11.578;2022-10-18T18:30:46;9.57;;;6.38;;
58091;SDS011;43896;48.178;11.578;2022-10-18T18:33:11;12.73;;;6.70;;
58091;SDS011;43896;48.178;11.578;2022-10-18T18:35:36;9.55;;;6.13;;
58091;SDS011;43896;48.178;11.578;2022-10-18T18:38:02;9.57;;;5.80;;
58091;SDS011;43896;48.178;11.578;2022-10-18T18:40:27;10.43;;;6.53;;
58091;SDS011;43896;48.178;11.578;2022-10-18T18:42:55;12.13;;;7.05;;
58091;SDS011;43896;48.178;11.578;2022-10-18T18:45:20;11.18;;;7.07;;
58091;SDS011;43896;48.178;11.578;2022-10-18T18:47:46;10.23;;;7.00;;
58091;SDS011;43896;48.178;11.578;2022-10-18T18:50:14;11.00;;;7.47;;
58091;SDS011;43896;48.178;11.578;2022-10-18T18:52:39;11.27;;;7.40;;
58091;SDS011;43896;48.178;11.578;2022-10-18T18:55:04;10.50;;;6.82;;
58091;SDS011;43896;48.178;11.578;2022-10-18T18:57:30;11.93;;;7.38;;
58091;SDS011;43896;48.178;11.578;2022-10-18T18:59:57;13.90;;;6.68;;